createdAt,value
2022-08-30T00:01:50.166Z,99501.88
2022-08-30T00:07:00.089Z,99501.90
2022-08-30T00:12:09.737Z,99499.15
2022-08-30T00:17:20.722Z,99501.40
2022-08-30T00:22:29.013Z,99499.67
2022-08-30T00:27:36.666Z,99504.77
2022-08-30T00:32:47.709Z,99514.68
2022-08-30T00:37:55.582Z,99515.85
2022-08-30T00:43:06.569Z,99513.31
2022-08-30T00:48:15.069Z,99509.44
2022-08-30T00:53:26.487Z,99507.15
2022-08-30T00:58:37.100Z,99508.40
2022-08-30T01:03:45.300Z,99506.45
2022-08-30T01:08:53.568Z,99503.10
2022-08-30T01:14:05.565Z,99500.83
2022-08-30T01:19:28.640Z,99498.30
2022-08-30T01:24:39.134Z,99501.21
2022-08-30T01:29:48.172Z,99499.66
2022-08-30T01:34:55.732Z,99491.37
2022-08-30T01:40:05.671Z,99494.77
2022-08-30T01:45:14.828Z,99501.08
2022-08-30T01:50:26.742Z,99498.71
2022-08-30T01:55:34.278Z,99496.60
2022-08-30T02:00:41.837Z,99490.20
2022-08-30T02:05:52.494Z,99493.02
2022-08-30T02:11:01.076Z,99490.70
2022-08-30T02:16:09.385Z,99491.04
2022-08-30T02:21:17.289Z,99487.23
2022-08-30T02:26:26.926Z,99489.99
2022-08-30T02:31:34.954Z,99492.27
2022-08-30T02:36:48.347Z,99490.69
2022-08-30T02:41:56.536Z,99487.95
2022-08-30T02:47:04.822Z,99480.42
2022-08-30T02:52:12.388Z,99483.31
2022-08-30T02:57:20.532Z,99482.02
2022-08-30T03:02:30.963Z,99484.88
2022-08-30T03:07:38.975Z,99481.55
2022-08-30T03:12:49.286Z,99485.36
2022-08-30T03:17:57.391Z,99481.14
2022-08-30T03:23:06.381Z,99481.93
2022-08-30T03:28:15.355Z,99486.89
2022-08-30T03:33:23.042Z,99488.66
2022-08-30T03:38:31.853Z,99494.59
2022-08-30T03:43:41.160Z,99494.88
2022-08-30T03:48:51.025Z,99503.96
2022-08-30T03:53:59.167Z,99505.94
2022-08-30T03:59:07.241Z,99509.83
2022-08-30T04:04:20.011Z,99519.32
2022-08-30T04:09:28.834Z,99523.88
2022-08-30T04:14:36.518Z,99530.42
2022-08-30T04:19:44.355Z,99531.66
2022-08-30T04:24:59.096Z,99533.94
2022-08-30T04:30:07.768Z,99534.93
2022-08-30T04:35:16.403Z,99538.01
2022-08-30T04:40:26.975Z,99537.85
2022-08-30T04:45:34.293Z,99538.77
2022-08-30T04:50:44.291Z,99542.98
2022-08-30T04:55:53.986Z,99548.80
2022-08-30T05:01:05.273Z,99553.06
2022-08-30T05:06:14.676Z,99551.79
2022-08-30T05:11:22.948Z,99548.38
2022-08-30T05:16:31.333Z,99553.84
2022-08-30T05:21:41.206Z,99560.24
2022-08-30T05:31:56.057Z,99567.07
2022-08-30T05:37:07.515Z,99567.15
2022-08-30T05:42:16.859Z,99558.81
2022-08-30T05:47:24.922Z,99562.57
2022-08-30T05:52:33.908Z,99563.73
2022-08-30T05:57:41.908Z,99564.42
2022-08-30T06:02:49.142Z,99561.30
2022-08-30T06:07:57.784Z,99565.42
2022-08-30T06:13:04.919Z,99569.61
2022-08-30T06:18:12.154Z,99575.29
2022-08-30T06:23:19.751Z,99583.58
2022-08-30T06:28:26.751Z,99577.86
2022-08-30T06:33:33.803Z,99581.50
2022-08-30T06:38:41.690Z,99584.97
2022-08-30T06:43:49.454Z,99583.91
2022-08-30T06:48:57.520Z,99583.56
2022-08-30T06:54:06.857Z,99582.38
2022-08-30T06:59:18.135Z,99582.89
2022-08-30T07:04:26.535Z,99585.02
2022-08-30T07:09:34.201Z,99587.84
2022-08-30T07:14:43.455Z,99589.90
2022-08-30T07:19:51.720Z,99592.05
2022-08-30T07:24:59.552Z,99595.84
2022-08-30T07:30:09.595Z,99597.61
2022-08-30T07:35:16.864Z,99589.10
2022-08-30T07:40:25.180Z,99591.42
2022-08-30T07:45:32.348Z,99591.09
2022-08-30T07:50:47.407Z,99587.92
2022-08-30T08:00:34.110Z,99591.04
2022-08-30T08:05:48.345Z,99589.00
2022-08-30T08:10:57.288Z,99591.68
2022-08-30T08:16:08.632Z,99587.30
2022-08-30T08:21:16.614Z,99589.13
2022-08-30T08:26:31.035Z,99591.66
2022-08-30T08:31:44.410Z,99595.90
2022-08-30T08:37:00.194Z,99594.98
2022-08-30T08:42:17.225Z,99597.91
2022-08-30T08:47:32.864Z,99599.35
2022-08-30T08:53:24.890Z,99598.92
2022-08-30T08:58:46.120Z,99590.47
2022-08-30T09:04:03.971Z,99593.81
2022-08-30T09:09:15.678Z,99590.17
2022-08-30T09:14:34.299Z,99592.23
2022-08-30T09:19:56.680Z,99591.44
2022-08-30T09:25:07.813Z,99586.22
2022-08-30T09:30:22.211Z,99585.52
2022-08-30T09:35:39.475Z,99583.47
2022-08-30T09:40:51.515Z,99581.14
2022-08-30T09:46:16.283Z,99580.50
2022-08-30T09:51:40.337Z,99583.58
2022-08-30T09:56:56.872Z,99584.92
2022-08-30T10:02:15.715Z,99583.94
2022-08-30T10:07:30.488Z,99575.41
2022-08-30T10:12:47.755Z,99570.81
2022-08-30T10:18:05.146Z,99567.30
2022-08-30T10:23:19.164Z,99568.55
2022-08-30T10:28:37.258Z,99564.89
2022-08-30T10:33:48.832Z,99562.32
2022-08-30T10:38:58.067Z,99557.02
2022-08-30T10:44:14.912Z,99551.87
2022-08-30T10:49:30.600Z,99551.52
2022-08-30T10:54:43.618Z,99556.76
2022-08-30T10:59:56.508Z,99539.39
2022-08-30T11:05:42.272Z,99534.48
2022-08-30T11:11:01.383Z,99532.00
2022-08-30T11:16:15.906Z,99534.92
2022-08-30T11:21:38.701Z,99538.88
2022-08-30T11:27:32.089Z,99536.52
2022-08-30T11:33:02.219Z,99538.84
2022-08-30T11:38:43.567Z,99540.09
2022-08-30T11:43:57.826Z,99532.09
2022-08-30T11:49:28.130Z,99531.42
2022-08-30T11:54:44.929Z,99526.56
2022-08-30T12:00:04.679Z,99522.46
2022-08-30T12:05:32.889Z,99517.45
2022-08-30T12:10:44.045Z,99513.64
2022-08-30T12:16:00.607Z,99509.86
2022-08-30T12:21:24.318Z,99501.04
2022-08-30T12:26:35.490Z,99492.50
2022-08-30T12:31:47.112Z,99488.51
2022-08-30T12:36:59.291Z,99487.52
2022-08-30T12:42:24.267Z,99475.91
2022-08-30T12:47:43.151Z,99471.21
2022-08-30T12:52:57.918Z,99460.27
2022-08-30T12:58:10.011Z,99450.39
2022-08-30T13:03:34.642Z,99453.80
2022-08-30T13:08:53.753Z,99448.67
2022-08-30T13:14:23.901Z,99441.77
2022-08-30T13:19:37.317Z,99444.98
2022-08-30T13:24:45.901Z,99439.41
2022-08-30T13:29:54.533Z,99432.21
2022-08-30T13:35:02.669Z,99425.64
2022-08-30T13:40:14.526Z,99426.86
2022-08-30T13:50:50.724Z,99423.14
2022-08-30T13:55:58.499Z,99423.39
2022-08-30T14:01:06.249Z,99414.83
2022-08-30T14:06:32.295Z,99411.80
2022-08-30T14:11:42.606Z,99406.91
2022-08-30T14:16:51.094Z,99406.19
2022-08-30T14:22:01.507Z,99403.05
2022-08-30T14:27:09.777Z,99392.34
2022-08-30T14:32:17.116Z,99388.58
2022-08-30T14:37:25.342Z,99387.38
2022-08-30T14:42:32.903Z,99382.13
2022-08-30T14:47:42.570Z,99385.33
2022-08-30T14:52:50.574Z,99385.43
2022-08-30T14:58:01.402Z,99383.42
2022-08-30T15:03:12.306Z,99382.20
2022-08-30T15:08:23.729Z,99384.07
2022-08-30T15:13:33.726Z,99385.83
2022-08-30T15:18:41.858Z,99385.77
2022-08-30T15:23:51.425Z,99385.40
2022-08-30T15:29:00.975Z,99383.27
2022-08-30T15:34:19.669Z,99381.95
2022-08-30T15:39:27.914Z,99382.05
2022-08-30T15:44:37.593Z,99380.42
2022-08-30T15:49:45.267Z,99384.07
2022-08-30T15:54:53.556Z,99382.15
2022-08-30T16:00:02.160Z,99377.02
2022-08-30T16:05:17.277Z,99377.81
2022-08-30T16:10:24.647Z,99372.07
2022-08-30T16:15:40.336Z,99367.34
2022-08-30T16:20:49.414Z,99366.44
2022-08-30T16:26:03.324Z,99366.60
2022-08-30T16:31:12.428Z,99367.09
2022-08-30T16:36:20.411Z,99366.23
2022-08-30T16:41:30.404Z,99365.46
2022-08-30T16:46:42.915Z,99361.33
2022-08-30T16:51:52.601Z,99364.57
2022-08-30T16:57:00.885Z,99368.12
2022-08-30T17:02:10.207Z,99372.39
2022-08-30T17:07:21.520Z,99376.23
2022-08-30T17:12:30.223Z,99380.36
2022-08-30T17:17:38.350Z,99387.69
2022-08-30T17:22:59.363Z,99391.98
2022-08-30T17:28:14.865Z,99401.13
2022-08-30T17:33:29.533Z,99409.73
2022-08-30T17:38:36.718Z,99411.04
2022-08-30T17:43:50.143Z,99416.56
2022-08-30T17:49:01.399Z,99425.77
2022-08-30T17:54:08.783Z,99430.84
2022-08-30T17:59:18.124Z,99441.10
2022-08-30T18:04:27.138Z,99449.20
2022-08-30T18:09:34.348Z,99459.11
2022-08-30T18:14:41.782Z,99464.35
2022-08-30T18:19:49.119Z,99469.70
2022-08-30T18:25:01.677Z,99474.77
2022-08-30T18:36:30.690Z,99480.12
2022-08-30T18:41:52.955Z,99481.99
2022-08-30T18:47:05.680Z,99482.23
2022-08-30T18:52:13.427Z,99486.18
2022-08-30T18:57:22.621Z,99487.23
2022-08-30T19:02:30.678Z,99493.21
2022-08-30T19:07:37.891Z,99491.73
2022-08-30T19:12:47.064Z,99488.95
2022-08-30T19:17:54.484Z,99485.73
2022-08-30T19:23:08.576Z,99486.30
2022-08-30T19:28:17.227Z,99483.04
2022-08-30T19:33:24.639Z,99488.41
2022-08-30T19:38:32.863Z,99489.37
2022-08-30T19:43:40.504Z,99491.84
2022-08-30T19:48:47.943Z,99495.29
2022-08-30T19:53:56.392Z,99496.80
2022-08-30T19:59:06.596Z,99494.13
2022-08-30T20:04:14.784Z,99489.82
2022-08-30T20:09:23.044Z,99487.28
2022-08-30T20:14:31.252Z,99490.61
2022-08-30T20:19:39.027Z,99488.06
2022-08-30T20:24:46.895Z,99486.51
2022-08-30T20:29:56.664Z,99479.74
2022-08-30T20:35:06.161Z,99476.58
2022-08-30T20:40:16.247Z,99489.52
2022-08-30T20:45:23.979Z,99491.16
2022-08-30T20:50:39.379Z,99488.10
2022-08-30T20:55:48.521Z,99485.36
2022-08-30T21:00:56.693Z,99491.90
2022-08-30T21:06:05.946Z,99493.05
2022-08-30T21:11:13.918Z,99497.77
2022-08-30T21:16:22.172Z,99502.36
2022-08-30T21:21:30.790Z,99500.68
2022-08-30T21:26:39.276Z,99497.91
2022-08-30T21:31:46.973Z,99503.05
2022-08-30T21:36:56.120Z,99502.38
2022-08-30T21:42:03.424Z,99500.71
2022-08-30T21:47:10.966Z,99497.85
2022-08-30T21:52:23.290Z,99507.69
2022-08-30T21:57:31.508Z,99515.78
2022-08-30T22:02:38.868Z,99518.54
2022-08-30T22:07:47.125Z,99516.55
2022-08-30T22:12:55.041Z,99514.21
2022-08-30T22:18:03.370Z,99511.81
2022-08-30T22:23:11.809Z,99507.62
2022-08-30T22:28:24.817Z,99508.80
2022-08-30T22:33:33.163Z,99506.48
2022-08-30T22:38:42.060Z,99511.81
2022-08-30T22:43:50.304Z,99511.50
2022-08-30T22:48:58.158Z,99505.16
2022-08-30T22:54:07.251Z,99501.65
2022-08-30T22:59:15.182Z,99497.76
2022-08-30T23:04:23.050Z,99499.40
2022-08-30T23:09:33.063Z,99505.57
2022-08-30T23:14:40.814Z,99509.38
2022-08-30T23:19:48.505Z,99512.67
2022-08-30T23:25:15.999Z,99511.41
2022-08-30T23:30:41.167Z,99508.66
2022-08-30T23:36:05.613Z,99504.84
2022-08-30T23:41:33.896Z,99499.56
2022-08-30T23:46:59.319Z,99495.05
2022-08-30T23:52:25.601Z,99496.89
2022-08-30T23:57:53.886Z,99492.49
